CFI033 ZGHA-ZGHA
Flight info
| Callsign | CFI033 |
|---|---|
| Flight time | 0h 31m |
| Altitude | 2000 |
| Route | LOCAL |
| Aircraft | C700/M-SBDGHM1RWXY/LB2 |
Departure
| Time | 2026-04-26 02:21 |
|---|---|
| Airport | Changsha Huanghua International Airport (ZGHA) |
Arrival
| Time | 2026-04-26 02:53 |
|---|---|
| Airport | Changsha Huanghua International Airport (ZGHA) |
| Time | Latitude | Longitude | Altitude | Speed | Heading |
|---|---|---|---|---|---|
| 2026-04-26 01:50 | 28.20667 | 113.21577 | 208 ft | 0 kts | 266° |
| 2026-04-26 02:16 | 28.20666 | 113.21564 | 214 ft | 5 kts | 267° |
| 2026-04-26 02:16 | 28.20650 | 113.21511 | 212 ft | 7 kts | 189° |
| 2026-04-26 02:16 | 28.20635 | 113.21572 | 208 ft | 12 kts | 89° |
| 2026-04-26 02:17 | 28.20632 | 113.21628 | 212 ft | 5 kts | 99° |
| 2026-04-26 02:17 | 28.20609 | 113.21684 | 211 ft | 10 kts | 120° |
| 2026-04-26 02:17 | 28.20603 | 113.21755 | 209 ft | 0 kts | 87° |
| 2026-04-26 02:18 | 28.20603 | 113.21757 | 209 ft | 1 kts | 87° |
| 2026-04-26 02:18 | 28.20606 | 113.21802 | 210 ft | 10 kts | 86° |
| 2026-04-26 02:19 | 28.20602 | 113.21906 | 210 ft | 17 kts | 88° |
| 2026-04-26 02:19 | 28.20616 | 113.22044 | 209 ft | 11 kts | 56° |
| 2026-04-26 02:19 | 28.20704 | 113.22062 | 214 ft | 16 kts | 356° |
| 2026-04-26 02:19 | 28.20828 | 113.22054 | 212 ft | 19 kts | 356° |
| 2026-04-26 02:20 | 28.20893 | 113.22109 | 214 ft | 12 kts | 89° |
| 2026-04-26 02:20 | 28.20893 | 113.22220 | 209 ft | 16 kts | 108° |
| 2026-04-26 02:20 | 28.20845 | 113.22250 | 209 ft | 0 kts | 183° |
| 2026-04-26 02:21 | 28.20793 | 113.22250 | 209 ft | 34 kts | 177° |
| 2026-04-26 02:21 | 28.20250 | 113.22285 | 212 ft | 119 kts | 176° |
| 2026-04-26 02:21 | 28.19218 | 113.22338 | 448 ft | 169 kts | 177° |
| 2026-04-26 02:21 | 28.17979 | 113.22411 | 1330 ft | 181 kts | 177° |
| 2026-04-26 02:22 | 28.16683 | 113.22513 | 2080 ft | 191 kts | 176° |
| 2026-04-26 02:22 | 28.15353 | 113.22622 | 2015 ft | 187 kts | 177° |
| 2026-04-26 02:22 | 28.14138 | 113.22953 | 2012 ft | 180 kts | 149° |
| 2026-04-26 02:22 | 28.13455 | 113.24103 | 2012 ft | 185 kts | 104° |
| 2026-04-26 02:23 | 28.13522 | 113.25562 | 2005 ft | 186 kts | 86° |
| 2026-04-26 02:23 | 28.13700 | 113.27058 | 2016 ft | 195 kts | 86° |
| 2026-04-26 02:23 | 28.13865 | 113.28577 | 1993 ft | 190 kts | 86° |
| 2026-04-26 02:23 | 28.14044 | 113.30055 | 2013 ft | 191 kts | 85° |
| 2026-04-26 02:24 | 28.14270 | 113.31538 | 1990 ft | 193 kts | 75° |
| 2026-04-26 02:24 | 28.15087 | 113.32712 | 1991 ft | 196 kts | 32° |
| 2026-04-26 02:24 | 28.16418 | 113.32980 | 1999 ft | 199 kts | 356° |
| 2026-04-26 02:24 | 28.17786 | 113.32873 | 2000 ft | 196 kts | 357° |
| 2026-04-26 02:25 | 28.19120 | 113.32765 | 1996 ft | 202 kts | 356° |
| 2026-04-26 02:25 | 28.20513 | 113.32660 | 1998 ft | 200 kts | 355° |
| 2026-04-26 02:25 | 28.21899 | 113.32529 | 2003 ft | 202 kts | 355° |
| 2026-04-26 02:25 | 28.23311 | 113.32410 | 1999 ft | 204 kts | 355° |
| 2026-04-26 02:26 | 28.24659 | 113.32288 | 2010 ft | 190 kts | 356° |
| 2026-04-26 02:26 | 28.26024 | 113.32190 | 2017 ft | 203 kts | 356° |
| 2026-04-26 02:26 | 28.27448 | 113.32093 | 1995 ft | 201 kts | 356° |
| 2026-04-26 02:26 | 28.28798 | 113.31888 | 2000 ft | 198 kts | 337° |
| 2026-04-26 02:27 | 28.29820 | 113.30880 | 1984 ft | 195 kts | 295° |
| 2026-04-26 02:27 | 28.30030 | 113.29489 | 1994 ft | 178 kts | 264° |
| 2026-04-26 02:27 | 28.29993 | 113.28037 | 2020 ft | 192 kts | 266° |
| 2026-04-26 02:27 | 28.29976 | 113.26607 | 1996 ft | 168 kts | 256° |
| 2026-04-26 02:28 | 28.29340 | 113.25559 | 1981 ft | 165 kts | 212° |
| 2026-04-26 02:28 | 28.28328 | 113.25005 | 2020 ft | 165 kts | 204° |
| 2026-04-26 02:28 | 28.27287 | 113.24411 | 1846 ft | 167 kts | 204° |
| 2026-04-26 02:28 | 28.26207 | 113.24016 | 1524 ft | 160 kts | 187° |
| 2026-04-26 02:29 | 28.25063 | 113.24008 | 1148 ft | 167 kts | 178° |
| 2026-04-26 02:29 | 28.23895 | 113.24079 | 951 ft | 172 kts | 177° |
| 2026-04-26 02:29 | 28.22709 | 113.24166 | 751 ft | 171 kts | 176° |
| 2026-04-26 02:29 | 28.21549 | 113.24252 | 521 ft | 165 kts | 178° |
| 2026-04-26 02:30 | 28.20408 | 113.24310 | 487 ft | 165 kts | 176° |
| 2026-04-26 02:30 | 28.19241 | 113.24391 | 494 ft | 168 kts | 178° |
| 2026-04-26 02:30 | 28.18083 | 113.24457 | 489 ft | 166 kts | 178° |
| 2026-04-26 02:30 | 28.16927 | 113.24532 | 493 ft | 166 kts | 178° |
| 2026-04-26 02:31 | 28.15768 | 113.24594 | 485 ft | 167 kts | 179° |
| 2026-04-26 02:31 | 28.14593 | 113.24698 | 760 ft | 170 kts | 175° |
| 2026-04-26 02:31 | 28.13432 | 113.24831 | 1339 ft | 167 kts | 175° |
| 2026-04-26 02:31 | 28.12277 | 113.24937 | 1906 ft | 168 kts | 176° |
| 2026-04-26 02:32 | 28.11118 | 113.25141 | 1986 ft | 164 kts | 161° |
| 2026-04-26 02:32 | 28.10326 | 113.26103 | 1976 ft | 181 kts | 115° |
| 2026-04-26 02:32 | 28.10330 | 113.27536 | 1981 ft | 195 kts | 84° |
| 2026-04-26 02:32 | 28.10502 | 113.29045 | 1990 ft | 190 kts | 88° |
| 2026-04-26 02:33 | 28.10659 | 113.30521 | 1982 ft | 187 kts | 85° |
| 2026-04-26 02:33 | 28.10846 | 113.31974 | 1991 ft | 186 kts | 85° |
| 2026-04-26 02:33 | 28.11071 | 113.33424 | 1982 ft | 191 kts | 72° |
| 2026-04-26 02:33 | 28.11983 | 113.34539 | 1989 ft | 203 kts | 28° |
| 2026-04-26 02:34 | 28.12891 | 113.34777 | 1989 ft | 202 kts | 2° |
| 2026-04-26 02:34 | 28.14723 | 113.34632 | 1988 ft | 197 kts | 356° |
| 2026-04-26 02:34 | 28.16089 | 113.34517 | 2003 ft | 199 kts | 355° |
| 2026-04-26 02:34 | 28.17476 | 113.34413 | 2000 ft | 199 kts | 355° |
| 2026-04-26 02:35 | 28.18863 | 113.34305 | 2009 ft | 201 kts | 355° |
| 2026-04-26 02:35 | 28.20251 | 113.34204 | 1987 ft | 196 kts | 355° |
| 2026-04-26 02:35 | 28.21606 | 113.34101 | 2001 ft | 197 kts | 356° |
| 2026-04-26 02:35 | 28.22550 | 113.34035 | 2015 ft | 204 kts | 355° |
| 2026-04-26 02:36 | 28.23936 | 113.33929 | 2012 ft | 200 kts | 355° |
| 2026-04-26 02:36 | 28.25353 | 113.33816 | 1993 ft | 201 kts | 355° |
| 2026-04-26 02:36 | 28.26739 | 113.33715 | 2000 ft | 199 kts | 356° |
| 2026-04-26 02:36 | 28.28112 | 113.33608 | 2001 ft | 198 kts | 355° |
| 2026-04-26 02:37 | 28.29493 | 113.33503 | 1999 ft | 201 kts | 355° |
| 2026-04-26 02:37 | 28.30876 | 113.33419 | 2002 ft | 198 kts | 357° |
| 2026-04-26 02:37 | 28.32258 | 113.33321 | 1987 ft | 197 kts | 355° |
| 2026-04-26 02:37 | 28.33639 | 113.33207 | 2011 ft | 201 kts | 355° |
| 2026-04-26 02:38 | 28.34993 | 113.32929 | 1996 ft | 196 kts | 332° |
| 2026-04-26 02:38 | 28.35910 | 113.31839 | 1983 ft | 192 kts | 289° |
| 2026-04-26 02:38 | 28.36064 | 113.30377 | 1997 ft | 188 kts | 266° |
| 2026-04-26 02:38 | 28.36055 | 113.28925 | 1992 ft | 180 kts | 265° |
| 2026-04-26 02:39 | 28.36032 | 113.27503 | 1992 ft | 183 kts | 265° |
| 2026-04-26 02:39 | 28.36015 | 113.26081 | 1982 ft | 177 kts | 264° |
| 2026-04-26 02:39 | 28.35951 | 113.24723 | 1995 ft | 170 kts | 252° |
| 2026-04-26 02:39 | 28.35254 | 113.23740 | 1994 ft | 164 kts | 203° |
| 2026-04-26 02:40 | 28.34128 | 113.23571 | 1990 ft | 162 kts | 179° |
| 2026-04-26 02:40 | 28.33011 | 113.23550 | 2003 ft | 162 kts | 179° |
| 2026-04-26 02:40 | 28.31869 | 113.23601 | 1995 ft | 164 kts | 178° |
| 2026-04-26 02:40 | 28.30714 | 113.23655 | 2018 ft | 170 kts | 178° |
| 2026-04-26 02:41 | 28.29550 | 113.23765 | 1986 ft | 163 kts | 175° |
| 2026-04-26 02:41 | 28.28419 | 113.23821 | 1828 ft | 165 kts | 179° |
| 2026-04-26 02:41 | 28.27331 | 113.23882 | 1630 ft | 153 kts | 176° |
| 2026-04-26 02:41 | 28.26234 | 113.23961 | 1415 ft | 159 kts | 179° |
| 2026-04-26 02:42 | 28.25112 | 113.24014 | 1211 ft | 165 kts | 177° |
| 2026-04-26 02:42 | 28.23965 | 113.24100 | 987 ft | 165 kts | 178° |
| 2026-04-26 02:42 | 28.22830 | 113.24161 | 758 ft | 160 kts | 177° |
| 2026-04-26 02:42 | 28.21724 | 113.24234 | 548 ft | 160 kts | 178° |
| 2026-04-26 02:43 | 28.19496 | 113.24370 | 406 ft | 163 kts | 178° |
| 2026-04-26 02:43 | 28.18376 | 113.24440 | 409 ft | 160 kts | 178° |
| 2026-04-26 02:43 | 28.17259 | 113.24507 | 410 ft | 161 kts | 178° |
| 2026-04-26 02:44 | 28.16122 | 113.24584 | 574 ft | 167 kts | 177° |
| 2026-04-26 02:44 | 28.14918 | 113.24722 | 1364 ft | 177 kts | 175° |
| 2026-04-26 02:44 | 28.13653 | 113.24852 | 1986 ft | 186 kts | 176° |
| 2026-04-26 02:44 | 28.12482 | 113.25382 | 1992 ft | 187 kts | 141° |
| 2026-04-26 02:45 | 28.11962 | 113.26705 | 1973 ft | 189 kts | 96° |
| 2026-04-26 02:45 | 28.12096 | 113.28199 | 1993 ft | 193 kts | 85° |
| 2026-04-26 02:45 | 28.12254 | 113.29686 | 2002 ft | 188 kts | 87° |
| 2026-04-26 02:45 | 28.12420 | 113.31141 | 1997 ft | 190 kts | 85° |
| 2026-04-26 02:46 | 28.12947 | 113.32514 | 1986 ft | 196 kts | 50° |
| 2026-04-26 02:46 | 28.14147 | 113.33171 | 1988 ft | 196 kts | 6° |
| 2026-04-26 02:46 | 28.15527 | 113.33115 | 2008 ft | 202 kts | 355° |
| 2026-04-26 02:46 | 28.16924 | 113.33026 | 1993 ft | 197 kts | 356° |
| 2026-04-26 02:47 | 28.18273 | 113.32913 | 2004 ft | 195 kts | 355° |
| 2026-04-26 02:47 | 28.19663 | 113.32800 | 1994 ft | 200 kts | 356° |
| 2026-04-26 02:47 | 28.21043 | 113.32708 | 2001 ft | 197 kts | 355° |
| 2026-04-26 02:47 | 28.22427 | 113.32607 | 2010 ft | 202 kts | 356° |
| 2026-04-26 02:48 | 28.23830 | 113.32503 | 1994 ft | 199 kts | 355° |
| 2026-04-26 02:48 | 28.25165 | 113.32409 | 1985 ft | 182 kts | 355° |
| 2026-04-26 02:48 | 28.26360 | 113.32334 | 2012 ft | 174 kts | 356° |
| 2026-04-26 02:48 | 28.27578 | 113.32228 | 2003 ft | 174 kts | 353° |
| 2026-04-26 02:49 | 28.28661 | 113.31672 | 1975 ft | 174 kts | 309° |
| 2026-04-26 02:49 | 28.29055 | 113.30418 | 1991 ft | 170 kts | 269° |
| 2026-04-26 02:49 | 28.29040 | 113.29117 | 1996 ft | 164 kts | 266° |
| 2026-04-26 02:49 | 28.29038 | 113.27821 | 1993 ft | 163 kts | 265° |
| 2026-04-26 02:50 | 28.29039 | 113.26641 | 1490 ft | 144 kts | 267° |
| 2026-04-26 02:50 | 28.29031 | 113.25474 | 1266 ft | 160 kts | 265° |
| 2026-04-26 02:50 | 28.29004 | 113.24224 | 1057 ft | 159 kts | 266° |
| 2026-04-26 02:50 | 28.28639 | 113.23087 | 985 ft | 156 kts | 225° |
| 2026-04-26 02:51 | 28.27680 | 113.22489 | 998 ft | 160 kts | 203° |
| 2026-04-26 02:51 | 28.26651 | 113.22006 | 985 ft | 157 kts | 194° |
| 2026-04-26 02:51 | 28.25578 | 113.21960 | 879 ft | 156 kts | 176° |
| 2026-04-26 02:51 | 28.24492 | 113.22042 | 788 ft | 157 kts | 176° |
| 2026-04-26 02:52 | 28.23398 | 113.22094 | 628 ft | 155 kts | 178° |
| 2026-04-26 02:52 | 28.22345 | 113.22150 | 439 ft | 154 kts | 176° |
| 2026-04-26 02:52 | 28.21255 | 113.22219 | 323 ft | 158 kts | 178° |
| 2026-04-26 02:52 | 28.20196 | 113.22287 | 233 ft | 136 kts | 177° |
| 2026-04-26 02:53 | 28.19425 | 113.22335 | 209 ft | 74 kts | 177° |
| 2026-04-26 02:53 | 28.19091 | 113.22355 | 210 ft | 33 kts | 176° |
| 2026-04-26 02:53 | 28.18909 | 113.22345 | 210 ft | 21 kts | 192° |
| 2026-04-26 02:53 | 28.18802 | 113.22302 | 210 ft | 16 kts | 204° |
| 2026-04-26 02:54 | 28.18687 | 113.22245 | 210 ft | 21 kts | 205° |
| 2026-04-26 02:54 | 28.18537 | 113.22195 | 209 ft | 24 kts | 176° |
| 2026-04-26 02:54 | 28.18361 | 113.22206 | 212 ft | 23 kts | 177° |
| 2026-04-26 02:54 | 28.18190 | 113.22216 | 209 ft | 26 kts | 176° |
| 2026-04-26 02:55 | 28.18031 | 113.22226 | 212 ft | 24 kts | 177° |
| 2026-04-26 02:55 | 28.17885 | 113.22235 | 213 ft | 18 kts | 177° |
| 2026-04-26 02:55 | 28.17760 | 113.22221 | 214 ft | 7 kts | 210° |
| 2026-04-26 02:55 | 28.17759 | 113.22156 | 208 ft | 12 kts | 278° |
| 2026-04-26 02:56 | 28.17756 | 113.22035 | 213 ft | 18 kts | 261° |
| 2026-04-26 02:56 | 28.17753 | 113.21889 | 214 ft | 21 kts | 303° |
| 2026-04-26 02:56 | 28.17862 | 113.21856 | 208 ft | 18 kts | 358° |
| 2026-04-26 02:56 | 28.17992 | 113.21845 | 211 ft | 11 kts | 338° |
| 2026-04-26 02:57 | 28.17991 | 113.21773 | 214 ft | 9 kts | 229° |
| 2026-04-26 02:57 | 28.17986 | 113.21737 | 209 ft | 0 kts | 269° |